sensor_id;sensor_type;location;lat;lon;timestamp;pressure;altitude;pressure_sealevel;temperature;humidity
30897;BME280;64229;52.246;21.054;2023-04-28T00:00:24;101030.00;;;6.37;63.02
30897;BME280;64229;52.246;21.054;2023-04-28T00:02:49;101027.44;;;6.30;62.99
30897;BME280;64229;52.246;21.054;2023-04-28T00:05:15;101022.63;;;6.21;62.53
30897;BME280;64229;52.246;21.054;2023-04-28T00:07:40;101027.34;;;6.19;62.48
30897;BME280;64229;52.246;21.054;2023-04-28T00:10:06;101027.09;;;6.20;61.74
30897;BME280;64229;52.246;21.054;2023-04-28T00:12:31;101025.50;;;6.19;61.21
30897;BME280;64229;52.246;21.054;2023-04-28T00:14:57;101017.09;;;6.22;61.19
30897;BME280;64229;52.246;21.054;2023-04-28T00:17:22;101026.66;;;6.23;61.26
30897;BME280;64229;52.246;21.054;2023-04-28T00:19:48;101017.53;;;6.19;62.00
30897;BME280;64229;52.246;21.054;2023-04-28T00:22:14;101019.03;;;6.33;66.04
30897;BME280;64229;52.246;21.054;2023-04-28T00:24:39;101010.41;;;6.20;64.37
30897;BME280;64229;52.246;21.054;2023-04-28T00:27:06;101023.34;;;6.09;64.50
30897;BME280;64229;52.246;21.054;2023-04-28T00:29:31;101030.06;;;6.05;65.79
30897;BME280;64229;52.246;21.054;2023-04-28T00:31:56;101026.50;;;5.93;66.18
30897;BME280;64229;52.246;21.054;2023-04-28T00:34:22;101025.91;;;5.91;66.13
30897;BME280;64229;52.246;21.054;2023-04-28T00:36:47;101027.53;;;5.92;65.26
30897;BME280;64229;52.246;21.054;2023-04-28T00:39:13;101027.75;;;5.91;65.20
30897;BME280;64229;52.246;21.054;2023-04-28T00:41:38;101028.16;;;5.88;65.15
30897;BME280;64229;52.246;21.054;2023-04-28T00:44:04;101033.25;;;5.89;65.38
30897;BME280;64229;52.246;21.054;2023-04-28T00:46:30;101034.72;;;5.85;65.68
30897;BME280;64229;52.246;21.054;2023-04-28T00:48:57;101036.69;;;5.90;65.34
30897;BME280;64229;52.246;21.054;2023-04-28T00:51:22;101032.63;;;5.94;64.91
30897;BME280;64229;52.246;21.054;2023-04-28T00:53:49;101029.41;;;5.85;64.67
30897;BME280;64229;52.246;21.054;2023-04-28T00:56:14;101026.75;;;5.85;64.18
30897;BME280;64229;52.246;21.054;2023-04-28T00:58:40;101025.22;;;5.71;64.34
30897;BME280;64229;52.246;21.054;2023-04-28T01:01:07;101035.19;;;5.75;63.63
30897;BME280;64229;52.246;21.054;2023-04-28T01:03:35;101034.75;;;5.78;63.52
30897;BME280;64229;52.246;21.054;2023-04-28T01:06:03;101029.88;;;5.75;63.27
30897;BME280;64229;52.246;21.054;2023-04-28T01:08:30;101029.69;;;5.70;63.94
30897;BME280;64229;52.246;21.054;2023-04-28T01:10:56;101019.00;;;5.59;64.08
30897;BME280;64229;52.246;21.054;2023-04-28T01:13:22;101021.41;;;5.60;63.73
30897;BME280;64229;52.246;21.054;2023-04-28T01:15:47;101013.94;;;5.50;63.77
30897;BME280;64229;52.246;21.054;2023-04-28T01:18:13;101042.66;;;5.54;64.65
30897;BME280;64229;52.246;21.054;2023-04-28T01:20:40;101036.34;;;5.55;64.60
30897;BME280;64229;52.246;21.054;2023-04-28T01:23:13;101045.22;;;5.67;64.72
30897;BME280;64229;52.246;21.054;2023-04-28T01:25:39;101026.00;;;5.46;65.58
30897;BME280;64229;52.246;21.054;2023-04-28T01:28:05;101015.38;;;5.53;66.74
30897;BME280;64229;52.246;21.054;2023-04-28T01:30:31;101041.91;;;5.71;66.92
30897;BME280;64229;52.246;21.054;2023-04-28T01:32:56;101043.75;;;5.71;68.45
30897;BME280;64229;52.246;21.054;2023-04-28T01:35:22;101041.91;;;5.71;68.64
30897;BME280;64229;52.246;21.054;2023-04-28T01:37:47;101031.97;;;5.67;68.07
30897;BME280;64229;52.246;21.054;2023-04-28T01:40:13;101044.22;;;5.61;68.06
30897;BME280;64229;52.246;21.054;2023-04-28T01:42:38;101041.63;;;5.55;68.08
30897;BME280;64229;52.246;21.054;2023-04-28T01:45:04;101041.44;;;5.49;68.34
30897;BME280;64229;52.246;21.054;2023-04-28T01:47:30;101053.06;;;5.48;69.36
30897;BME280;64229;52.246;21.054;2023-04-28T01:49:56;101054.53;;;5.44;69.41
30897;BME280;64229;52.246;21.054;2023-04-28T01:52:21;101048.63;;;5.42;69.88
30897;BME280;64229;52.246;21.054;2023-04-28T01:54:50;101052.91;;;5.43;70.93
30897;BME280;64229;52.246;21.054;2023-04-28T01:57:16;101048.81;;;5.41;70.74
30897;BME280;64229;52.246;21.054;2023-04-28T01:59:41;101052.91;;;5.43;70.93
30897;BME280;64229;52.246;21.054;2023-04-28T02:02:06;101048.31;;;5.26;71.58
30897;BME280;64229;52.246;21.054;2023-04-28T02:04:32;101044.84;;;5.25;71.25
30897;BME280;64229;52.246;21.054;2023-04-28T02:06:57;101044.25;;;5.23;71.35
30897;BME280;64229;52.246;21.054;2023-04-28T02:09:23;101045.44;;;5.27;70.09
30897;BME280;64229;52.246;21.054;2023-04-28T02:11:48;101053.22;;;5.22;70.02
30897;BME280;64229;52.246;21.054;2023-04-28T02:14:14;101052.84;;;5.12;70.46
30897;BME280;64229;52.246;21.054;2023-04-28T02:16:39;101047.13;;;5.08;70.28
30897;BME280;64229;52.246;21.054;2023-04-28T02:19:04;101045.94;;;5.04;70.39
30897;BME280;64229;52.246;21.054;2023-04-28T02:21:30;101048.00;;;4.96;70.52
30897;BME280;64229;52.246;21.054;2023-04-28T02:23:56;101050.06;;;4.93;70.71
30897;BME280;64229;52.246;21.054;2023-04-28T02:26:21;101050.06;;;4.87;71.21
30897;BME280;64229;52.246;21.054;2023-04-28T02:28:47;101049.03;;;4.94;70.88
30897;BME280;64229;52.246;21.054;2023-04-28T02:31:13;101054.53;;;4.93;71.03
30897;BME280;64229;52.246;21.054;2023-04-28T02:33:39;101045.00;;;4.85;71.23
30897;BME280;64229;52.246;21.054;2023-04-28T02:36:06;101036.88;;;4.74;71.39
30897;BME280;64229;52.246;21.054;2023-04-28T02:38:32;101033.22;;;4.81;71.36
30897;BME280;64229;52.246;21.054;2023-04-28T02:40:58;101047.13;;;5.08;70.72
30897;BME280;64229;52.246;21.054;2023-04-28T02:43:25;101044.09;;;5.05;71.43
30897;BME280;64229;52.246;21.054;2023-04-28T02:45:50;101054.09;;;5.03;72.41
30897;BME280;64229;52.246;21.054;2023-04-28T02:48:16;101065.50;;;5.03;72.39
30897;BME280;64229;52.246;21.054;2023-04-28T02:50:41;101058.97;;;4.99;72.83
30897;BME280;64229;52.246;21.054;2023-04-28T02:53:06;101059.41;;;4.96;73.19
30897;BME280;64229;52.246;21.054;2023-04-28T02:55:32;101060.84;;;4.85;73.12
30897;BME280;64229;52.246;21.054;2023-04-28T02:57:57;101049.84;;;4.88;73.63
30897;BME280;64229;52.246;21.054;2023-04-28T03:00:22;101063.72;;;4.90;74.24
30897;BME280;64229;52.246;21.054;2023-04-28T03:02:48;101038.34;;;4.70;74.51
30897;BME280;64229;52.246;21.054;2023-04-28T03:05:13;101065.34;;;4.85;75.23
30897;BME280;64229;52.246;21.054;2023-04-28T03:07:38;101061.28;;;4.82;75.43
30897;BME280;64229;52.246;21.054;2023-04-28T03:10:04;101060.25;;;4.83;75.79
30897;BME280;64229;52.246;21.054;2023-04-28T03:12:30;101060.47;;;4.75;75.71
30897;BME280;64229;52.246;21.054;2023-04-28T03:14:55;101058.69;;;4.69;76.30
30897;BME280;64229;52.246;21.054;2023-04-28T03:17:20;101062.53;;;4.73;75.93
30897;BME280;64229;52.246;21.054;2023-04-28T03:19:46;101064.34;;;4.73;75.46
30897;BME280;64229;52.246;21.054;2023-04-28T03:22:11;101059.88;;;4.80;75.13
30897;BME280;64229;52.246;21.054;2023-04-28T03:24:36;101072.28;;;4.79;76.36
30897;BME280;64229;52.246;21.054;2023-04-28T03:27:02;101057.66;;;4.70;77.28
30897;BME280;64229;52.246;21.054;2023-04-28T03:29:27;101071.47;;;4.65;77.51
30897;BME280;64229;52.246;21.054;2023-04-28T03:31:53;101071.47;;;4.65;77.90
30897;BME280;64229;52.246;21.054;2023-04-28T03:34:18;101072.94;;;4.61;78.33
30897;BME280;64229;52.246;21.054;2023-04-28T03:36:43;101075.97;;;4.52;78.65
30897;BME280;64229;52.246;21.054;2023-04-28T03:39:09;101074.97;;;4.59;79.00
30897;BME280;64229;52.246;21.054;2023-04-28T03:41:34;101076.41;;;4.42;82.40
30897;BME280;64229;52.246;21.054;2023-04-28T03:43:59;101081.50;;;4.37;81.05
30897;BME280;64229;52.246;21.054;2023-04-28T03:46:25;101070.91;;;4.30;81.50
30897;BME280;64229;52.246;21.054;2023-04-28T03:48:50;101075.38;;;4.23;81.83
30897;BME280;64229;52.246;21.054;2023-04-28T03:51:15;101069.69;;;4.20;82.58
30897;BME280;64229;52.246;21.054;2023-04-28T03:53:41;101067.25;;;4.25;82.82
30897;BME280;64229;52.246;21.054;2023-04-28T03:56:06;101070.72;;;4.32;82.47
30897;BME280;64229;52.246;21.054;2023-04-28T03:58:31;101077.84;;;4.38;82.87
30897;BME280;64229;52.246;21.054;2023-04-28T04:00:57;101077.22;;;4.43;82.58
30897;BME280;64229;52.246;21.054;2023-04-28T04:03:24;101074.16;;;4.52;81.78
30897;BME280;64229;52.246;21.054;2023-04-28T04:05:51;101085.16;;;4.49;81.79
30897;BME280;64229;52.246;21.054;2023-04-28T04:08:17;101069.50;;;4.41;81.60
30897;BME280;64229;52.246;21.054;2023-04-28T04:10:43;101065.22;;;4.47;81.13
30897;BME280;64229;52.246;21.054;2023-04-28T04:13:08;101083.31;;;4.50;80.95
30897;BME280;64229;52.246;21.054;2023-04-28T04:15:34;101088.38;;;4.45;81.24
30897;BME280;64229;52.246;21.054;2023-04-28T04:17:59;101088.19;;;4.59;80.69
30897;BME280;64229;52.246;21.054;2023-04-28T04:20:25;101087.34;;;4.65;80.12
30897;BME280;64229;52.246;21.054;2023-04-28T04:22:50;101084.06;;;4.90;76.78
30897;BME280;64229;52.246;21.054;2023-04-28T04:25:15;101056.41;;;4.79;75.81
30897;BME280;64229;52.246;21.054;2023-04-28T04:27:41;101100.31;;;5.00;75.31
30897;BME280;64229;52.246;21.054;2023-04-28T04:30:07;101098.09;;;4.84;76.23
30897;BME280;64229;52.246;21.054;2023-04-28T04:32:32;101087.34;;;4.65;76.93
30897;BME280;64229;52.246;21.054;2023-04-28T04:34:58;101090.59;;;4.68;77.46
30897;BME280;64229;52.246;21.054;2023-04-28T04:37:23;101095.91;;;4.54;78.48
30897;BME280;64229;52.246;21.054;2023-04-28T04:39:48;101099.16;;;4.56;79.36
30897;BME280;64229;52.246;21.054;2023-04-28T04:42:13;101087.56;;;4.51;79.78
30897;BME280;64229;52.246;21.054;2023-04-28T04:44:39;101092.06;;;4.50;80.15
30897;BME280;64229;52.246;21.054;2023-04-28T04:47:04;101105.25;;;4.63;80.68
30897;BME280;64229;52.246;21.054;2023-04-28T04:49:30;101083.50;;;4.61;80.79
30897;BME280;64229;52.246;21.054;2023-04-28T04:51:55;101094.44;;;4.78;80.71
30897;BME280;64229;52.246;21.054;2023-04-28T04:54:21;101104.16;;;5.04;78.81
30897;BME280;64229;52.246;21.054;2023-04-28T04:56:46;101092.56;;;4.99;78.73
30897;BME280;64229;52.246;21.054;2023-04-28T04:59:12;101097.84;;;5.12;78.66
30897;BME280;64229;52.246;21.054;2023-04-28T05:01:37;101100.97;;;5.40;76.76
30897;BME280;64229;52.246;21.054;2023-04-28T05:04:03;101099.91;;;5.48;76.27
30897;BME280;64229;52.246;21.054;2023-04-28T05:06:28;101094.47;;;5.30;76.80
30897;BME280;64229;52.246;21.054;2023-04-28T05:08:53;101102.44;;;5.30;77.83
30897;BME280;64229;52.246;21.054;2023-04-28T05:11:20;101102.84;;;5.33;77.97
30897;BME280;64229;52.246;21.054;2023-04-28T05:13:46;101087.16;;;5.32;78.39
30897;BME280;64229;52.246;21.054;2023-04-28T05:16:11;101102.41;;;5.43;78.35
30897;BME280;64229;52.246;21.054;2023-04-28T05:18:37;101105.19;;;5.55;77.52
30897;BME280;64229;52.246;21.054;2023-04-28T05:21:02;101100.69;;;5.55;76.89
30897;BME280;64229;52.246;21.054;2023-04-28T05:23:27;101102.28;;;5.63;76.87
30897;BME280;64229;52.246;21.054;2023-04-28T05:25:53;101107.53;;;5.69;76.78
30897;BME280;64229;52.246;21.054;2023-04-28T05:28:19;101106.50;;;5.70;76.10
30897;BME280;64229;52.246;21.054;2023-04-28T05:30:44;101093.41;;;5.82;74.28
30897;BME280;64229;52.246;21.054;2023-04-28T05:33:10;101110.81;;;6.03;73.89
30897;BME280;64229;52.246;21.054;2023-04-28T05:35:35;101114.84;;;6.12;73.28
30897;BME280;64229;52.246;21.054;2023-04-28T05:38:01;101106.03;;;6.18;73.19
30897;BME280;64229;52.246;21.054;2023-04-28T05:40:26;101099.13;;;6.17;73.50
30897;BME280;64229;52.246;21.054;2023-04-28T05:42:52;101093.59;;;6.19;72.26
30897;BME280;64229;52.246;21.054;2023-04-28T05:45:18;101116.75;;;6.30;71.74
30897;BME280;64229;52.246;21.054;2023-04-28T05:47:43;101109.97;;;6.34;71.40
30897;BME280;64229;52.246;21.054;2023-04-28T05:50:09;101114.00;;;6.43;70.29
30897;BME280;64229;52.246;21.054;2023-04-28T05:52:34;101119.16;;;6.56;70.66
30897;BME280;64229;52.246;21.054;2023-04-28T05:54:59;101116.69;;;6.61;70.42
30897;BME280;64229;52.246;21.054;2023-04-28T05:57:25;101121.28;;;6.73;70.43
30897;BME280;64229;52.246;21.054;2023-04-28T05:59:50;101117.38;;;6.75;69.75
30897;BME280;64229;52.246;21.054;2023-04-28T06:02:16;101117.72;;;6.79;69.30
30897;BME280;64229;52.246;21.054;2023-04-28T06:04:41;101122.75;;;6.87;68.91
30897;BME280;64229;52.246;21.054;2023-04-28T06:07:08;101117.09;;;7.02;68.35
30897;BME280;64229;52.246;21.054;2023-04-28T06:09:35;101123.31;;;7.14;68.34
30897;BME280;64229;52.246;21.054;2023-04-28T06:12:00;101118.50;;;7.22;68.26
30897;BME280;64229;52.246;21.054;2023-04-28T06:14:27;101116.06;;;7.39;66.40
30897;BME280;64229;52.246;21.054;2023-04-28T06:16:53;101111.78;;;7.38;66.69
30897;BME280;64229;52.246;21.054;2023-04-28T06:19:18;101120.03;;;7.48;67.01
30897;BME280;64229;52.246;21.054;2023-04-28T06:21:44;101089.72;;;7.38;65.09
30897;BME280;64229;52.246;21.054;2023-04-28T06:24:10;101114.81;;;7.72;64.66
30897;BME280;64229;52.246;21.054;2023-04-28T06:26:35;101119.50;;;7.88;64.05
30897;BME280;64229;52.246;21.054;2023-04-28T06:29:00;101121.38;;;7.99;63.59
30897;BME280;64229;52.246;21.054;2023-04-28T06:31:26;101129.41;;;8.23;58.85
30897;BME280;64229;52.246;21.054;2023-04-28T06:33:51;101126.28;;;8.26;58.87
30897;BME280;64229;52.246;21.054;2023-04-28T06:36:16;101130.28;;;8.35;58.21
30897;BME280;64229;52.246;21.054;2023-04-28T06:38:43;101132.03;;;8.41;58.80
30897;BME280;64229;52.246;21.054;2023-04-28T06:41:09;101130.16;;;8.42;57.60
30897;BME280;64229;52.246;21.054;2023-04-28T06:43:35;101131.41;;;8.39;56.34
30897;BME280;64229;52.246;21.054;2023-04-28T06:46:00;101135.03;;;8.56;55.21
30897;BME280;64229;52.246;21.054;2023-04-28T06:48:26;101132.03;;;8.53;55.01
30897;BME280;64229;52.246;21.054;2023-04-28T06:50:52;101137.34;;;8.64;55.06
30897;BME280;64229;52.246;21.054;2023-04-28T06:53:17;101134.22;;;8.67;52.84
30897;BME280;64229;52.246;21.054;2023-04-28T06:55:43;101130.19;;;8.77;51.41
30897;BME280;64229;52.246;21.054;2023-04-28T06:58:08;101138.28;;;8.70;49.75
30897;BME280;64229;52.246;21.054;2023-04-28T07:00:34;101136.78;;;8.74;50.34
30897;BME280;64229;52.246;21.054;2023-04-28T07:02:59;101140.56;;;9.02;47.92
30897;BME280;64229;52.246;21.054;2023-04-28T07:05:25;101135.69;;;9.10;47.86
30897;BME280;64229;52.246;21.054;2023-04-28T07:07:50;101143.19;;;9.25;47.97
30897;BME280;64229;52.246;21.054;2023-04-28T07:10:16;101137.25;;;9.35;45.99
30897;BME280;64229;52.246;21.054;2023-04-28T07:12:41;101126.59;;;9.35;46.36
30897;BME280;64229;52.246;21.054;2023-04-28T07:15:07;101127.44;;;9.23;46.80
30897;BME280;64229;52.246;21.054;2023-04-28T07:17:32;101138.06;;;9.47;47.19
30897;BME280;64229;52.246;21.054;2023-04-28T07:19:58;101130.06;;;9.75;44.21
30897;BME280;64229;52.246;21.054;2023-04-28T07:22:23;101122.19;;;9.97;44.03
30897;BME280;64229;52.246;21.054;2023-04-28T07:24:48;101128.19;;;10.04;44.02
30897;BME280;64229;52.246;21.054;2023-04-28T07:27:14;101121.72;;;10.00;43.65
30897;BME280;64229;52.246;21.054;2023-04-28T07:29:39;101122.78;;;10.16;43.16
30897;BME280;64229;52.246;21.054;2023-04-28T07:32:05;101121.59;;;10.40;42.70
30897;BME280;64229;52.246;21.054;2023-04-28T07:34:33;101119.75;;;10.41;43.10
30897;BME280;64229;52.246;21.054;2023-04-28T07:37:00;101111.09;;;10.51;42.71
30897;BME280;64229;52.246;21.054;2023-04-28T07:39:26;101111.59;;;12.33;39.57
30897;BME280;64229;52.246;21.054;2023-04-28T07:41:52;101108.38;;;15.34;33.74
30897;BME280;64229;52.246;21.054;2023-04-28T07:44:17;101110.28;;;16.80;30.27
30897;BME280;64229;52.246;21.054;2023-04-28T07:46:42;101106.25;;;15.85;31.65
30897;BME280;64229;52.246;21.054;2023-04-28T07:49:07;101105.44;;;15.25;31.62
30897;BME280;64229;52.246;21.054;2023-04-28T07:51:33;101100.59;;;15.27;32.59
30897;BME280;64229;52.246;21.054;2023-04-28T07:53:59;101104.63;;;16.76;29.79
30897;BME280;64229;52.246;21.054;2023-04-28T07:56:24;101106.28;;;16.43;29.98
30897;BME280;64229;52.246;21.054;2023-04-28T07:58:50;101113.38;;;15.61;30.48
30897;BME280;64229;52.246;21.054;2023-04-28T08:01:16;101098.38;;;14.75;30.65
30897;BME280;64229;52.246;21.054;2023-04-28T08:03:41;101100.56;;;13.97;31.06
30897;BME280;64229;52.246;21.054;2023-04-28T08:06:07;101102.31;;;14.98;30.92
30897;BME280;64229;52.246;21.054;2023-04-28T08:08:32;101104.97;;;15.13;30.62
30897;BME280;64229;52.246;21.054;2023-04-28T08:10:57;101090.91;;;14.36;30.23
30897;BME280;64229;52.246;21.054;2023-04-28T08:13:23;101075.59;;;14.06;30.67
30897;BME280;64229;52.246;21.054;2023-04-28T08:15:49;101090.56;;;13.56;31.91
30897;BME280;64229;52.246;21.054;2023-04-28T08:18:14;101097.91;;;13.14;32.03
30897;BME280;64229;52.246;21.054;2023-04-28T08:20:40;101096.41;;;12.86;32.02
30897;BME280;64229;52.246;21.054;2023-04-28T08:23:06;101088.97;;;12.45;32.67
30897;BME280;64229;52.246;21.054;2023-04-28T08:25:31;101096.28;;;13.18;33.40
30897;BME280;64229;52.246;21.054;2023-04-28T08:27:57;101093.97;;;15.04;29.40
30897;BME280;64229;52.246;21.054;2023-04-28T08:30:23;101095.22;;;15.32;28.72
30897;BME280;64229;52.246;21.054;2023-04-28T08:32:48;101091.97;;;15.30;28.15
30897;BME280;64229;52.246;21.054;2023-04-28T08:35:13;101090.56;;;14.89;28.36
30897;BME280;64229;52.246;21.054;2023-04-28T08:37:40;101086.88;;;14.49;28.92
30897;BME280;64229;52.246;21.054;2023-04-28T08:40:06;101065.66;;;13.76;29.39
30897;BME280;64229;52.246;21.054;2023-04-28T08:42:34;101081.69;;;13.46;29.33
30897;BME280;64229;52.246;21.054;2023-04-28T08:45:02;101084.28;;;13.25;30.00
30897;BME280;64229;52.246;21.054;2023-04-28T08:47:33;101090.41;;;13.16;30.42
30897;BME280;64229;52.246;21.054;2023-04-28T08:50:02;101054.59;;;12.80;29.98
30897;BME280;64229;52.246;21.054;2023-04-28T08:52:28;101078.72;;;12.80;30.10
30897;BME280;64229;52.246;21.054;2023-04-28T08:54:55;101071.66;;;12.63;31.04
30897;BME280;64229;52.246;21.054;2023-04-28T08:57:23;101069.84;;;14.89;27.88
30897;BME280;64229;52.246;21.054;2023-04-28T08:59:51;101078.00;;;18.12;24.08
30897;BME280;64229;52.246;21.054;2023-04-28T09:02:18;101070.72;;;20.70;21.08
30897;BME280;64229;52.246;21.054;2023-04-28T09:04:43;101074.13;;;21.76;19.67
30897;BME280;64229;52.246;21.054;2023-04-28T09:07:12;101077.06;;;22.44;19.72
30897;BME280;64229;52.246;21.054;2023-04-28T09:09:38;101074.22;;;22.70;17.81
30897;BME280;64229;52.246;21.054;2023-04-28T09:12:05;101074.41;;;22.27;18.25
30897;BME280;64229;52.246;21.054;2023-04-28T09:14:33;101065.34;;;23.20;18.57
30897;BME280;64229;52.246;21.054;2023-04-28T09:16:59;101073.94;;;21.90;19.42
30897;BME280;64229;52.246;21.054;2023-04-28T09:19:33;101065.44;;;23.02;18.75
30897;BME280;64229;52.246;21.054;2023-04-28T09:22:00;101071.47;;;22.32;19.28
30897;BME280;64229;52.246;21.054;2023-04-28T09:27:00;101067.75;;;21.72;19.08
30897;BME280;64229;52.246;21.054;2023-04-28T09:29:26;101059.50;;;21.03;19.88
30897;BME280;64229;52.246;21.054;2023-04-28T09:31:52;101059.97;;;20.26;20.85
30897;BME280;64229;52.246;21.054;2023-04-28T09:34:18;101036.78;;;20.42;21.70
30897;BME280;64229;52.246;21.054;2023-04-28T09:36:43;101059.28;;;22.55;20.20
30897;BME280;64229;52.246;21.054;2023-04-28T09:39:09;101051.97;;;24.35;17.33
30897;BME280;64229;52.246;21.054;2023-04-28T09:41:43;101050.25;;;25.28;16.23
30897;BME280;64229;52.246;21.054;2023-04-28T09:44:17;101046.38;;;23.02;18.72
30897;BME280;64229;52.246;21.054;2023-04-28T09:46:46;101051.13;;;21.30;19.37
30897;BME280;64229;52.246;21.054;2023-04-28T09:49:12;101033.94;;;21.04;21.06
30897;BME280;64229;52.246;21.054;2023-04-28T09:51:38;101036.97;;;20.94;21.72
30897;BME280;64229;52.246;21.054;2023-04-28T09:54:05;101026.16;;;19.70;23.48
30897;BME280;64229;52.246;21.054;2023-04-28T09:56:32;101030.84;;;18.50;23.75
30897;BME280;64229;52.246;21.054;2023-04-28T09:58:58;101014.38;;;16.74;25.98
30897;BME280;64229;52.246;21.054;2023-04-28T10:01:26;101020.84;;;16.20;26.15
30897;BME280;64229;52.246;21.054;2023-04-28T10:03:52;101019.66;;;16.31;26.08
30897;BME280;64229;52.246;21.054;2023-04-28T10:06:18;101015.09;;;16.56;26.38
30897;BME280;64229;52.246;21.054;2023-04-28T10:08:44;101006.34;;;16.16;27.49
30897;BME280;64229;52.246;21.054;2023-04-28T10:11:13;101008.00;;;15.44;28.22
30897;BME280;64229;52.246;21.054;2023-04-28T10:13:40;101001.34;;;14.82;26.65
30897;BME280;64229;52.246;21.054;2023-04-28T10:16:07;100989.78;;;14.76;27.98
30897;BME280;64229;52.246;21.054;2023-04-28T10:18:34;100968.81;;;14.83;28.84
30897;BME280;64229;52.246;21.054;2023-04-28T10:21:00;100998.28;;;14.98;27.24
30897;BME280;64229;52.246;21.054;2023-04-28T10:25:59;100990.72;;;15.89;28.51
30897;BME280;64229;52.246;21.054;2023-04-28T10:28:25;100981.16;;;15.73;27.33
30897;BME280;64229;52.246;21.054;2023-04-28T10:31:10;100980.47;;;16.20;27.08
30897;BME280;64229;52.246;21.054;2023-04-28T10:33:36;100986.88;;;16.48;26.05
30897;BME280;64229;52.246;21.054;2023-04-28T10:36:03;100987.28;;;16.60;25.90
30897;BME280;64229;52.246;21.054;2023-04-28T10:38:28;100977.88;;;16.58;26.06
30897;BME280;64229;52.246;21.054;2023-04-28T10:40:54;100985.25;;;15.99;26.24
30897;BME280;64229;52.246;21.054;2023-04-28T10:45:58;100964.25;;;15.28;25.38
30897;BME280;64229;52.246;21.054;2023-04-28T10:56:15;100964.56;;;14.67;29.01
30897;BME280;64229;52.246;21.054;2023-04-28T10:58:46;100962.16;;;14.70;29.50
30897;BME280;64229;52.246;21.054;2023-04-28T11:01:33;100961.34;;;14.70;29.25
30897;BME280;64229;52.246;21.054;2023-04-28T11:04:07;100958.03;;;14.88;28.01
30897;BME280;64229;52.246;21.054;2023-04-28T11:06:38;100950.97;;;15.02;27.49
30897;BME280;64229;52.246;21.054;2023-04-28T11:17:02;100944.81;;;14.97;27.45
30897;BME280;64229;52.246;21.054;2023-04-28T11:19:43;100942.41;;;14.95;27.43
30897;BME280;64229;52.246;21.054;2023-04-28T11:22:20;100942.44;;;14.90;27.37
30897;BME280;64229;52.246;21.054;2023-04-28T11:25:00;100935.47;;;14.89;27.72
30897;BME280;64229;52.246;21.054;2023-04-28T11:27:27;100928.44;;;14.93;27.60
30897;BME280;64229;52.246;21.054;2023-04-28T11:29:53;100937.47;;;15.13;26.99
30897;BME280;64229;52.246;21.054;2023-04-28T11:32:29;100925.13;;;15.46;27.42
30897;BME280;64229;52.246;21.054;2023-04-28T11:34:55;100899.88;;;15.76;26.16
30897;BME280;64229;52.246;21.054;2023-04-28T11:37:21;100911.47;;;15.71;27.06
30897;BME280;64229;52.246;21.054;2023-04-28T11:39:47;100927.97;;;15.59;27.40
30897;BME280;64229;52.246;21.054;2023-04-28T11:42:12;100929.34;;;15.18;28.55
30897;BME280;64229;52.246;21.054;2023-04-28T11:44:38;100928.78;;;14.82;29.82
30897;BME280;64229;52.246;21.054;2023-04-28T11:47:05;100928.31;;;15.14;27.56
30897;BME280;64229;52.246;21.054;2023-04-28T11:49:41;100930.00;;;15.39;26.40
30897;BME280;64229;52.246;21.054;2023-04-28T11:52:07;100923.22;;;15.12;28.07
30897;BME280;64229;52.246;21.054;2023-04-28T11:54:33;100924.97;;;14.93;27.82
30897;BME280;64229;52.246;21.054;2023-04-28T11:56:59;100920.91;;;14.95;27.78
30897;BME280;64229;52.246;21.054;2023-04-28T11:59:32;100927.69;;;14.83;27.66
30897;BME280;64229;52.246;21.054;2023-04-28T12:02:00;100929.63;;;14.72;27.73
30897;BME280;64229;52.246;21.054;2023-04-28T12:04:27;100926.78;;;14.43;28.83
30897;BME280;64229;52.246;21.054;2023-04-28T12:07:19;100920.38;;;14.29;29.13
30897;BME280;64229;52.246;21.054;2023-04-28T12:10:10;100916.13;;;14.17;29.63
30897;BME280;64229;52.246;21.054;2023-04-28T12:12:36;100903.69;;;14.42;29.86
30897;BME280;64229;52.246;21.054;2023-04-28T12:15:03;100907.63;;;14.70;28.80
30897;BME280;64229;52.246;21.054;2023-04-28T12:17:32;100911.47;;;14.98;29.19
30897;BME280;64229;52.246;21.054;2023-04-28T12:20:08;100901.13;;;14.81;28.17
30897;BME280;64229;52.246;21.054;2023-04-28T12:22:48;100895.50;;;15.17;29.56
30897;BME280;64229;52.246;21.054;2023-04-28T12:25:15;100897.72;;;15.44;28.05
30897;BME280;64229;52.246;21.054;2023-04-28T12:28:03;100895.00;;;15.10;29.01
30897;BME280;64229;52.246;21.054;2023-04-28T12:30:34;100892.34;;;14.60;28.37
30897;BME280;64229;52.246;21.054;2023-04-28T12:33:02;100886.81;;;14.31;29.16
30897;BME280;64229;52.246;21.054;2023-04-28T12:35:28;100886.84;;;14.26;28.34
30897;BME280;64229;52.246;21.054;2023-04-28T12:37:55;100870.41;;;14.48;27.05
30897;BME280;64229;52.246;21.054;2023-04-28T12:40:22;100873.38;;;14.36;26.75
30897;BME280;64229;52.246;21.054;2023-04-28T12:42:48;100878.72;;;14.41;27.65
30897;BME280;64229;52.246;21.054;2023-04-28T12:45:14;100876.19;;;14.65;28.43
30897;BME280;64229;52.246;21.054;2023-04-28T12:47:40;100875.59;;;14.79;28.01
30897;BME280;64229;52.246;21.054;2023-04-28T12:50:06;100861.19;;;15.03;29.78
30897;BME280;64229;52.246;21.054;2023-04-28T12:52:32;100864.22;;;15.26;28.57
30897;BME280;64229;52.246;21.054;2023-04-28T12:54:59;100869.28;;;15.67;27.34
30897;BME280;64229;52.246;21.054;2023-04-28T12:57:25;100862.69;;;16.02;26.42
30897;BME280;64229;52.246;21.054;2023-04-28T12:59:50;100868.88;;;15.49;26.87
30897;BME280;64229;52.246;21.054;2023-04-28T13:02:17;100869.16;;;14.74;27.96
30897;BME280;64229;52.246;21.054;2023-04-28T13:04:43;100863.97;;;14.34;28.81